createdAt,value
2022-12-04T00:02:03.909Z,12.70
2022-12-04T00:04:30.890Z,12.80
2022-12-04T00:06:59.027Z,12.85
2022-12-04T00:09:26.274Z,12.73
2022-12-04T00:11:53.184Z,12.77
2022-12-04T00:14:20.314Z,12.77
2022-12-04T00:16:47.325Z,12.38
2022-12-04T00:19:14.330Z,12.90
2022-12-04T00:21:41.258Z,11.95
2022-12-04T00:24:08.256Z,12.93
2022-12-04T00:26:35.309Z,13.18
2022-12-04T00:29:02.361Z,12.70
2022-12-04T00:31:29.709Z,12.73
2022-12-04T00:33:57.100Z,13.38
2022-12-04T00:36:24.971Z,13.85
2022-12-04T00:38:52.023Z,13.07
2022-12-04T00:41:20.722Z,13.27
2022-12-04T00:43:47.689Z,13.32
2022-12-04T00:46:15.044Z,13.63
2022-12-04T00:48:42.269Z,13.00
2022-12-04T00:51:11.260Z,13.55
2022-12-04T00:53:38.584Z,13.50
2022-12-04T00:56:13.506Z,13.40
2022-12-04T00:58:40.761Z,13.05
2022-12-04T01:01:08.588Z,13.57
2022-12-04T01:03:35.975Z,14.52
2022-12-04T01:06:03.821Z,13.80
2022-12-04T01:08:30.880Z,13.38
2022-12-04T01:10:57.762Z,12.63
2022-12-04T01:13:25.069Z,13.10
2022-12-04T01:15:52.203Z,13.52
2022-12-04T01:18:19.106Z,12.45
2022-12-04T01:20:49.965Z,13.63
2022-12-04T01:23:17.240Z,13.60
2022-12-04T01:25:54.908Z,14.20
2022-12-04T01:28:21.946Z,13.77
2022-12-04T01:31:08.344Z,15.10
2022-12-04T01:33:35.575Z,12.70
2022-12-04T01:36:03.784Z,13.73
2022-12-04T01:38:31.328Z,14.20
2022-12-04T01:40:58.258Z,13.95
2022-12-04T01:43:26.103Z,14.27
2022-12-04T01:45:54.588Z,13.43
2022-12-04T01:48:32.694Z,14.43
2022-12-04T01:51:07.965Z,14.02
2022-12-04T01:53:36.059Z,14.57
2022-12-04T01:56:02.920Z,14.48
2022-12-04T01:58:33.124Z,13.82
2022-12-04T02:01:07.941Z,14.45
2022-12-04T02:03:36.252Z,14.32
2022-12-04T02:06:03.184Z,15.23
2022-12-04T02:08:30.166Z,13.52
2022-12-04T02:11:28.276Z,14.35
2022-12-04T02:14:04.249Z,14.05
2022-12-04T02:16:34.431Z,14.98
2022-12-04T02:19:07.252Z,14.02
2022-12-04T02:21:38.671Z,14.82
2022-12-04T02:24:33.938Z,14.35
2022-12-04T02:27:26.466Z,14.07
2022-12-04T02:30:03.784Z,14.43
2022-12-04T02:32:43.788Z,14.38
2022-12-04T02:35:35.851Z,15.07
2022-12-04T02:38:24.711Z,13.85
2022-12-04T02:41:07.082Z,13.60
2022-12-04T02:43:45.953Z,14.20
2022-12-04T02:46:25.042Z,13.73
2022-12-04T02:48:53.161Z,13.50
2022-12-04T02:51:20.906Z,14.07
2022-12-04T02:53:57.365Z,14.65
2022-12-04T02:56:28.832Z,13.95
2022-12-04T02:59:00.765Z,15.50
2022-12-04T03:04:01.033Z,14.32
2022-12-04T03:06:29.633Z,14.43
2022-12-04T03:09:03.285Z,14.10
2022-12-04T03:11:31.009Z,15.70
2022-12-04T03:14:00.912Z,15.07
2022-12-04T03:16:37.777Z,14.82
2022-12-04T03:19:28.319Z,15.55
2022-12-04T03:21:58.532Z,15.13
2022-12-04T03:24:32.874Z,15.80
2022-12-04T03:27:30.138Z,15.68
2022-12-04T03:30:09.002Z,15.63
2022-12-04T03:32:51.861Z,16.90
2022-12-04T03:35:34.638Z,16.52
2022-12-04T03:38:13.579Z,17.15
2022-12-04T03:41:03.355Z,15.40
2022-12-04T03:43:52.253Z,16.30
2022-12-04T03:46:28.445Z,16.38
2022-12-04T03:49:22.578Z,17.00
2022-12-04T03:52:02.478Z,15.77
2022-12-04T03:54:31.775Z,17.33
2022-12-04T03:57:04.392Z,16.92
2022-12-04T03:59:38.256Z,16.88
2022-12-04T04:02:05.329Z,17.55
2022-12-04T04:04:34.991Z,18.13
2022-12-04T04:07:05.441Z,18.50
2022-12-04T04:09:35.164Z,17.92
2022-12-04T04:12:32.973Z,18.45
2022-12-04T04:15:27.470Z,17.95
2022-12-04T04:18:12.897Z,17.70
2022-12-04T04:21:15.820Z,18.08
2022-12-04T04:24:05.868Z,18.02
2022-12-04T04:26:34.333Z,18.35
2022-12-04T04:29:01.266Z,18.30
2022-12-04T04:31:40.406Z,19.02
2022-12-04T04:34:20.580Z,18.90
2022-12-04T04:37:15.358Z,19.02
2022-12-04T04:40:11.838Z,16.73
2022-12-04T04:42:49.504Z,19.08
2022-12-04T04:45:28.109Z,19.75
2022-12-04T04:48:05.828Z,18.10
2022-12-04T04:50:33.110Z,19.40
2022-12-04T04:53:05.630Z,18.45
2022-12-04T04:55:34.645Z,19.77
2022-12-04T04:58:08.645Z,20.35
2022-12-04T05:00:35.692Z,18.30
2022-12-04T05:03:02.732Z,19.83
2022-12-04T05:05:29.748Z,19.58
2022-12-04T05:07:56.716Z,19.23
2022-12-04T05:10:23.805Z,19.48
2022-12-04T05:12:50.751Z,18.70
2022-12-04T05:15:17.651Z,19.15
2022-12-04T05:17:44.610Z,18.30
2022-12-04T05:20:11.814Z,19.10
2022-12-04T05:22:38.763Z,17.95
2022-12-04T05:25:06.004Z,18.75
2022-12-04T05:27:32.988Z,18.45
2022-12-04T05:29:59.966Z,18.45
2022-12-04T05:32:27.930Z,17.83
2022-12-04T05:34:55.495Z,18.42
2022-12-04T05:37:22.796Z,18.90
2022-12-04T05:39:49.732Z,18.52
2022-12-04T05:42:16.900Z,18.52
2022-12-04T05:44:43.815Z,20.10
2022-12-04T05:47:11.183Z,18.63
2022-12-04T05:49:38.148Z,19.58
2022-12-04T05:52:05.541Z,19.27
2022-12-04T05:54:32.508Z,19.20
2022-12-04T05:56:59.566Z,19.50
2022-12-04T05:59:26.468Z,19.30
2022-12-04T06:01:53.488Z,19.33
2022-12-04T06:04:20.558Z,19.45
2022-12-04T06:06:47.461Z,18.33
2022-12-04T06:09:14.395Z,19.52
2022-12-04T06:11:42.005Z,19.10
2022-12-04T06:14:10.940Z,18.73
2022-12-04T06:16:39.816Z,20.05
2022-12-04T06:19:09.006Z,19.67
2022-12-04T06:21:36.840Z,20.35
2022-12-04T06:24:03.950Z,19.85
2022-12-04T06:26:30.957Z,19.67
2022-12-04T06:28:58.357Z,19.75
2022-12-04T06:31:26.688Z,20.90
2022-12-04T06:33:54.418Z,20.08
2022-12-04T06:36:21.839Z,20.30
2022-12-04T06:38:49.724Z,21.80
2022-12-04T06:41:18.888Z,20.23
2022-12-04T06:43:45.843Z,19.88
2022-12-04T06:46:18.961Z,21.52
2022-12-04T06:48:46.084Z,20.13
2022-12-04T06:51:15.304Z,20.23
2022-12-04T06:53:42.707Z,19.77
2022-12-04T06:56:11.715Z,19.40
2022-12-04T06:58:38.951Z,19.60
2022-12-04T07:01:13.906Z,19.92
2022-12-04T07:03:44.851Z,20.65
2022-12-04T07:06:17.525Z,19.17
2022-12-04T07:08:45.191Z,17.85
2022-12-04T07:11:12.470Z,18.63
2022-12-04T07:13:39.436Z,19.35
2022-12-04T07:16:07.412Z,19.30
2022-12-04T07:18:34.499Z,19.02
2022-12-04T07:21:07.961Z,19.00
2022-12-04T07:23:35.290Z,18.92
2022-12-04T07:26:08.401Z,20.13
2022-12-04T07:28:36.017Z,18.05
2022-12-04T07:31:07.231Z,18.55
2022-12-04T07:33:34.373Z,17.85
2022-12-04T07:36:02.125Z,17.92
2022-12-04T07:38:29.707Z,19.17
2022-12-04T07:40:57.653Z,18.98
2022-12-04T07:43:24.929Z,17.83
2022-12-04T07:45:52.103Z,18.42
2022-12-04T07:48:19.143Z,19.15
2022-12-04T07:50:46.017Z,16.45
2022-12-04T07:53:12.940Z,17.95
2022-12-04T07:55:39.884Z,17.27
2022-12-04T07:58:06.793Z,17.25
2022-12-04T08:00:33.755Z,15.80
2022-12-04T08:03:00.646Z,15.90
2022-12-04T08:05:27.599Z,16.83
2022-12-04T08:07:54.611Z,16.67
2022-12-04T08:10:21.621Z,15.90
2022-12-04T08:12:48.532Z,17.50
2022-12-04T08:15:15.750Z,17.65
2022-12-04T08:17:42.669Z,17.23
2022-12-04T08:20:09.953Z,16.85
2022-12-04T08:22:37.076Z,17.08
2022-12-04T08:25:04.225Z,16.52
2022-12-04T08:27:31.077Z,16.05
2022-12-04T08:29:58.253Z,16.17
2022-12-04T08:32:25.476Z,15.40
2022-12-04T08:34:55.700Z,16.23
2022-12-04T08:37:23.034Z,16.45
2022-12-04T08:39:49.927Z,14.82
2022-12-04T08:42:16.818Z,14.25
2022-12-04T08:44:43.732Z,14.55
2022-12-04T08:47:10.710Z,14.85
2022-12-04T08:49:37.653Z,15.13
2022-12-04T08:52:04.704Z,14.98
2022-12-04T08:54:35.966Z,14.70
2022-12-04T08:57:03.755Z,12.93
2022-12-04T08:59:30.837Z,14.55
2022-12-04T09:01:57.805Z,14.50
2022-12-04T09:04:24.946Z,14.10
2022-12-04T09:06:51.857Z,14.93
2022-12-04T09:09:18.775Z,13.93
2022-12-04T09:11:46.144Z,14.02
2022-12-04T09:14:13.139Z,13.77
2022-12-04T09:16:40.039Z,14.40
2022-12-04T09:19:06.968Z,13.20
2022-12-04T09:21:33.904Z,13.02
2022-12-04T09:24:00.880Z,12.60
2022-12-04T09:26:29.625Z,12.55
2022-12-04T09:28:56.673Z,13.23
2022-12-04T09:31:23.941Z,13.25
2022-12-04T09:33:51.916Z,13.23
2022-12-04T09:36:19.003Z,13.15
2022-12-04T09:38:50.402Z,13.32
2022-12-04T09:41:46.353Z,13.05
2022-12-04T09:44:32.907Z,13.70
2022-12-04T09:47:02.631Z,12.40
2022-12-04T09:49:47.004Z,13.35
2022-12-04T09:52:25.334Z,14.68
2022-12-04T09:54:52.363Z,13.60
2022-12-04T09:57:25.889Z,12.90
2022-12-04T09:59:53.154Z,13.80
2022-12-04T10:02:35.808Z,13.88
2022-12-04T10:05:03.002Z,13.52
2022-12-04T10:07:34.130Z,13.85
2022-12-04T10:10:08.590Z,14.02
2022-12-04T10:13:01.852Z,13.95
2022-12-04T10:15:43.221Z,14.20
2022-12-04T10:18:32.005Z,14.50
2022-12-04T10:21:35.635Z,14.90
2022-12-04T10:24:17.479Z,14.35
2022-12-04T10:26:46.342Z,15.45
2022-12-04T10:29:20.492Z,19.73
2022-12-04T10:31:47.589Z,15.68
2022-12-04T10:34:28.811Z,15.73
2022-12-04T10:37:04.791Z,14.70
2022-12-04T10:39:49.429Z,14.95
2022-12-04T10:42:36.022Z,14.82
2022-12-04T10:45:03.885Z,15.60
2022-12-04T10:47:31.419Z,14.43
2022-12-04T10:50:03.579Z,15.30
2022-12-04T10:52:30.515Z,16.35
2022-12-04T10:55:01.018Z,16.75
2022-12-04T10:57:41.888Z,17.52
2022-12-04T11:00:25.111Z,16.42
2022-12-04T11:02:52.790Z,16.42
2022-12-04T11:05:47.214Z,16.85
2022-12-04T11:08:24.293Z,17.00
2022-12-04T11:11:07.155Z,16.02
2022-12-04T11:13:35.172Z,16.25
2022-12-04T11:16:02.258Z,16.52
2022-12-04T11:18:46.797Z,16.08
2022-12-04T11:21:24.557Z,14.98
2022-12-04T11:23:51.984Z,14.60
2022-12-04T11:26:29.326Z,15.00
2022-12-04T11:28:56.322Z,14.02
2022-12-04T11:31:23.490Z,13.63
2022-12-04T11:33:56.202Z,13.23
2022-12-04T11:36:28.317Z,14.32
2022-12-04T11:39:15.757Z,14.25
2022-12-04T11:41:42.687Z,13.90
2022-12-04T11:44:26.665Z,14.02
2022-12-04T11:46:58.153Z,14.10
2022-12-04T11:49:26.110Z,14.18
2022-12-04T11:52:22.457Z,14.43
2022-12-04T11:55:02.898Z,13.75
2022-12-04T11:57:38.001Z,12.90
2022-12-04T12:00:16.986Z,11.85
2022-12-04T12:02:50.126Z,12.10
2022-12-04T12:05:35.621Z,12.40
2022-12-04T12:08:20.716Z,12.38
2022-12-04T12:11:05.881Z,12.02
2022-12-04T12:13:35.742Z,12.20
2022-12-04T12:16:17.805Z,12.05
2022-12-04T12:18:53.941Z,12.57
2022-12-04T12:21:48.390Z,13.27
2022-12-04T12:24:29.279Z,12.77
2022-12-04T12:27:34.596Z,13.32
2022-12-04T12:30:19.275Z,13.02
2022-12-04T12:33:11.312Z,13.07
2022-12-04T12:35:53.449Z,16.23
2022-12-04T12:41:16.360Z,11.73
2022-12-04T12:44:13.352Z,12.38
2022-12-04T12:46:51.846Z,12.23
2022-12-04T12:49:29.951Z,11.52
2022-12-04T12:52:06.282Z,12.90
2022-12-04T12:54:39.416Z,11.90
2022-12-04T12:57:19.976Z,13.13
2022-12-04T12:59:49.372Z,12.57
2022-12-04T13:02:38.253Z,14.07
2022-12-04T13:05:07.780Z,14.20
2022-12-04T13:08:06.974Z,15.18
2022-12-04T13:10:40.622Z,14.95
2022-12-04T13:13:19.573Z,13.95
2022-12-04T13:15:52.698Z,13.57
2022-12-04T13:18:50.134Z,14.70
2022-12-04T13:21:52.275Z,13.98
2022-12-04T13:24:25.182Z,14.95
2022-12-04T13:27:11.948Z,14.90
2022-12-04T13:30:03.986Z,14.38
2022-12-04T13:32:34.588Z,14.80
2022-12-04T13:35:16.983Z,14.63
2022-12-04T13:38:05.491Z,14.30
2022-12-04T13:40:45.330Z,13.68
2022-12-04T13:43:22.716Z,13.77
2022-12-04T13:45:50.869Z,13.60
2022-12-04T13:48:33.339Z,13.90
2022-12-04T13:51:05.445Z,13.45
2022-12-04T13:53:37.651Z,14.48
2022-12-04T13:56:09.461Z,13.20
2022-12-04T13:58:37.723Z,12.80
2022-12-04T14:01:06.218Z,12.35
2022-12-04T14:03:34.941Z,13.38
2022-12-04T14:06:05.512Z,12.55
2022-12-04T14:08:40.406Z,12.70
2022-12-04T14:11:17.725Z,13.13
2022-12-04T14:13:46.247Z,11.95
2022-12-04T14:16:39.566Z,12.05
2022-12-04T14:19:06.728Z,11.25
2022-12-04T14:21:47.509Z,11.77
2022-12-04T14:24:37.799Z,11.20
2022-12-04T14:27:31.503Z,11.35
2022-12-04T14:29:58.426Z,11.38
2022-12-04T14:32:27.941Z,12.30
2022-12-04T14:34:55.245Z,12.13
2022-12-04T14:37:28.127Z,11.77
2022-12-04T14:39:55.430Z,11.27
2022-12-04T14:42:28.106Z,11.13
2022-12-04T14:44:59.645Z,12.68
2022-12-04T14:47:52.725Z,12.70
2022-12-04T14:50:42.589Z,11.95
2022-12-04T14:53:13.152Z,12.48
2022-12-04T14:55:56.752Z,13.18
2022-12-04T14:58:34.790Z,13.68
2022-12-04T15:01:04.140Z,13.20
2022-12-04T15:03:34.590Z,13.60
2022-12-04T15:06:06.260Z,14.13
2022-12-04T15:08:34.267Z,14.68
2022-12-04T15:11:19.754Z,13.60
2022-12-04T15:13:46.762Z,14.65
2022-12-04T15:16:21.744Z,14.88
2022-12-04T15:18:59.728Z,12.98
2022-12-04T15:21:46.943Z,13.60
2022-12-04T15:24:20.207Z,13.65
2022-12-04T15:26:48.061Z,13.80
2022-12-04T15:29:23.054Z,13.98
2022-12-04T15:31:56.575Z,13.40
2022-12-04T15:34:27.824Z,13.13
2022-12-04T15:37:07.788Z,12.70
2022-12-04T15:39:35.393Z,12.40
2022-12-04T15:42:18.427Z,11.48
2022-12-04T15:45:01.878Z,11.10
2022-12-04T15:47:29.953Z,11.73
2022-12-04T15:50:28.839Z,12.13
2022-12-04T15:52:58.706Z,12.05
2022-12-04T15:55:26.500Z,11.55
2022-12-04T15:57:58.960Z,11.70
2022-12-04T16:00:32.964Z,11.07
2022-12-04T16:03:00.169Z,12.40
2022-12-04T16:05:38.025Z,11.60
2022-12-04T16:08:24.113Z,11.38
2022-12-04T16:11:03.741Z,11.98
2022-12-04T16:13:39.743Z,12.60
2022-12-04T16:16:08.440Z,11.45
2022-12-04T16:18:35.461Z,12.32
2022-12-04T16:21:02.430Z,12.00
2022-12-04T16:23:29.340Z,12.52
2022-12-04T16:25:56.405Z,12.63
2022-12-04T16:28:23.440Z,12.07
2022-12-04T16:30:52.639Z,12.32
2022-12-04T16:33:19.718Z,13.02
2022-12-04T16:35:46.701Z,13.25
2022-12-04T16:38:17.096Z,12.02
2022-12-04T16:40:45.231Z,11.18
2022-12-04T16:43:13.579Z,11.02
2022-12-04T16:45:44.557Z,12.18
2022-12-04T16:48:11.506Z,12.68
2022-12-04T16:50:38.435Z,12.80
2022-12-04T16:53:05.372Z,12.48
2022-12-04T16:55:34.935Z,12.23
2022-12-04T16:58:02.954Z,12.32
2022-12-04T17:00:30.028Z,13.38
2022-12-04T17:02:57.404Z,12.85
2022-12-04T17:05:26.645Z,13.95
2022-12-04T17:07:53.743Z,13.27
2022-12-04T17:10:23.928Z,12.20
2022-12-04T17:12:54.490Z,11.60
2022-12-04T17:15:22.119Z,11.05
2022-12-04T17:17:49.087Z,13.32
2022-12-04T17:20:17.530Z,11.38
2022-12-04T17:22:44.440Z,12.73
2022-12-04T17:25:11.719Z,11.90
2022-12-04T17:27:38.720Z,12.30
2022-12-04T17:30:08.716Z,12.95
2022-12-04T17:32:37.415Z,13.05
2022-12-04T17:35:05.189Z,12.15
2022-12-04T17:37:35.558Z,13.07
2022-12-04T17:40:02.628Z,13.20
2022-12-04T17:42:29.580Z,13.15
2022-12-04T17:44:56.931Z,13.27
2022-12-04T17:47:24.274Z,13.82
2022-12-04T17:49:51.627Z,12.93
2022-12-04T17:52:22.598Z,13.57
2022-12-04T17:54:50.406Z,14.13
2022-12-04T17:57:18.001Z,14.13
2022-12-04T17:59:45.285Z,14.07
2022-12-04T18:02:12.359Z,14.32
2022-12-04T18:04:39.283Z,14.00
2022-12-04T18:07:06.306Z,13.93
2022-12-04T18:09:33.421Z,13.43
2022-12-04T18:12:01.696Z,12.93
2022-12-04T18:14:28.971Z,12.77
2022-12-04T18:16:56.813Z,13.00
2022-12-04T18:19:25.614Z,13.07
2022-12-04T18:21:54.106Z,12.48
2022-12-04T18:24:21.567Z,12.38
2022-12-04T18:26:49.099Z,13.60
2022-12-04T18:29:21.791Z,12.88
2022-12-04T18:31:48.905Z,13.85
2022-12-04T18:34:15.908Z,13.40
2022-12-04T18:36:43.088Z,13.00
2022-12-04T18:39:28.717Z,12.30
2022-12-04T18:41:59.032Z,13.80
2022-12-04T18:44:26.321Z,13.73
2022-12-04T18:46:53.609Z,12.80
2022-12-04T18:49:20.720Z,13.35
2022-12-04T18:51:50.025Z,13.27
2022-12-04T18:54:22.482Z,14.00
2022-12-04T18:59:18.997Z,13.02
2022-12-04T19:01:47.131Z,13.48
2022-12-04T19:04:14.584Z,13.27
2022-12-04T19:06:43.886Z,14.63
2022-12-04T19:09:12.961Z,13.43
2022-12-04T19:11:40.259Z,13.00
2022-12-04T19:14:16.047Z,13.13
2022-12-04T19:16:45.029Z,13.30
2022-12-04T19:19:12.562Z,12.68
2022-12-04T19:21:39.692Z,13.73
2022-12-04T19:24:07.211Z,13.70
2022-12-04T19:26:34.494Z,14.00
2022-12-04T19:29:01.822Z,13.43
2022-12-04T19:31:31.184Z,13.88
2022-12-04T19:33:58.272Z,14.05
2022-12-04T19:36:26.590Z,14.13
2022-12-04T19:38:54.368Z,13.23
2022-12-04T19:41:22.784Z,13.20
2022-12-04T19:43:51.006Z,13.00
2022-12-04T19:46:20.118Z,12.07
2022-12-04T19:48:48.992Z,12.30
2022-12-04T19:51:18.154Z,11.90
2022-12-04T19:53:45.698Z,11.55
2022-12-04T19:56:20.486Z,11.75
2022-12-04T19:58:47.520Z,12.35
2022-12-04T20:01:15.891Z,12.20
2022-12-04T20:03:42.999Z,12.27
2022-12-04T20:06:12.270Z,11.93
2022-12-04T20:08:45.578Z,11.60
2022-12-04T20:11:15.768Z,11.50
2022-12-04T20:13:43.309Z,11.82
2022-12-04T20:16:11.744Z,11.00
2022-12-04T20:18:39.172Z,11.95
2022-12-04T20:21:11.094Z,12.07
2022-12-04T20:23:42.958Z,12.10
2022-12-04T20:26:11.643Z,11.75
2022-12-04T20:28:38.695Z,11.05
2022-12-04T20:31:35.682Z,11.82
2022-12-04T20:34:04.011Z,12.10
2022-12-04T20:36:31.651Z,11.00
2022-12-04T20:38:59.351Z,11.15
2022-12-04T20:41:27.589Z,12.10
2022-12-04T20:43:54.751Z,13.10
2022-12-04T20:46:25.615Z,11.73
2022-12-04T20:48:53.744Z,11.60
2022-12-04T20:51:25.520Z,11.80
2022-12-04T20:53:53.632Z,12.70
2022-12-04T20:56:21.908Z,12.38
2022-12-04T20:58:48.864Z,12.65
2022-12-04T21:01:17.276Z,12.38
2022-12-04T21:03:44.436Z,12.15
2022-12-04T21:06:16.267Z,12.77
2022-12-04T21:08:54.309Z,13.25
2022-12-04T21:11:22.332Z,12.63
2022-12-04T21:14:07.775Z,12.80
2022-12-04T21:16:35.101Z,13.02
2022-12-04T21:19:05.902Z,13.10
2022-12-04T21:21:33.377Z,13.15
2022-12-04T21:24:00.351Z,12.52
2022-12-04T21:26:31.015Z,13.10
2022-12-04T21:28:58.206Z,12.77
2022-12-04T21:31:27.075Z,13.65
2022-12-04T21:33:57.055Z,13.23
2022-12-04T21:36:24.369Z,14.25
2022-12-04T21:38:51.351Z,12.82
2022-12-04T21:41:37.235Z,14.00
2022-12-04T21:44:07.811Z,14.10
2022-12-04T21:46:34.909Z,12.85
2022-12-04T21:49:01.983Z,13.80
2022-12-04T21:51:55.803Z,13.90
2022-12-04T21:54:15.930Z,13.93
2022-12-04T21:56:42.945Z,14.40
2022-12-04T21:59:10.135Z,12.80
2022-12-04T22:01:37.354Z,12.77
2022-12-04T22:04:04.439Z,13.05
2022-12-04T22:06:33.822Z,13.57
2022-12-04T22:09:01.474Z,13.77
2022-12-04T22:11:28.542Z,13.93
2022-12-04T22:13:55.540Z,13.63
2022-12-04T22:16:29.671Z,14.60
2022-12-04T22:18:57.759Z,14.32
2022-12-04T22:21:24.911Z,13.82
2022-12-04T22:23:59.080Z,13.65
2022-12-04T22:26:26.416Z,14.23
2022-12-04T22:28:53.402Z,14.10
2022-12-04T22:31:21.562Z,13.60
2022-12-04T22:33:49.605Z,14.75
2022-12-04T22:36:18.914Z,14.73
2022-12-04T22:39:08.616Z,13.48
2022-12-04T22:41:32.977Z,14.43
2022-12-04T22:43:59.885Z,14.85
2022-12-04T22:46:26.864Z,14.82
2022-12-04T22:48:53.797Z,13.60
2022-12-04T22:51:24.089Z,14.38
2022-12-04T22:53:52.734Z,13.57
2022-12-04T22:56:29.433Z,13.53
2022-12-04T22:58:56.532Z,14.25
2022-12-04T23:01:33.618Z,15.02
2022-12-04T23:04:02.476Z,14.35
2022-12-04T23:06:30.616Z,14.63
2022-12-04T23:09:00.891Z,14.50
2022-12-04T23:11:28.283Z,15.02
2022-12-04T23:13:57.230Z,14.35
2022-12-04T23:16:24.455Z,15.48
2022-12-04T23:18:51.583Z,15.18
2022-12-04T23:21:19.048Z,15.25
2022-12-04T23:23:46.477Z,16.35
2022-12-04T23:26:15.600Z,15.32
2022-12-04T23:28:42.687Z,15.73
2022-12-04T23:31:10.941Z,16.50
2022-12-04T23:33:38.493Z,15.93
2022-12-04T23:36:05.948Z,16.35
2022-12-04T23:38:34.034Z,16.13
2022-12-04T23:41:01.987Z,16.45
2022-12-04T23:43:28.981Z,16.90
2022-12-04T23:45:56.026Z,17.65
2022-12-04T23:48:23.076Z,16.35
2022-12-04T23:50:50.110Z,16.70
2022-12-04T23:53:17.172Z,16.48
2022-12-04T23:55:44.140Z,16.00
2022-12-04T23:58:11.023Z,16.15
